Owensboro Daviess County Airport
KOWB : now visible

Airfield :











YOU CAN JOIN US ON...

 
LOGIN :

Register | Disclaimer

   EN    FR    IT 

 









Legend :    VFR   Marginal VFR   IFR   Intensive IFR   Very Intensive IFR
Visi :
Ceiling :
>= 8 km
>= 3000ft
5 to 8 km
1000 to 3000 ft
1500m to 5 km
500 to 1000 ft
800 to 1500m
200 to 500 ft
< 800m
< 200 ft
Symbols :   Thunderstorms  Fog  Heavy snow  Heavy precipitations  Wind > 20 kt






- Airport Elevation : 407 ft
- IATA code : OWB


KOWB - Owensboro Daviess County

CURRENT METAR :
  • 271856Z 33009KT 4SM BR OVC010 02/M01 A3000 RMK AO2 SLP162 T00171006

EXPIRED METARs :
  • 271756Z 33009KT 6SM HZ OVC012 03/01 A3000 RMK AO2 SLP160 60002 T00330006 10050 21006 50003
  • 271656Z 33008KT 7SM BKN014 04/01 A3000 RMK AO2 SLP163 P0002 T00440011

TAF KOWB
Valid from the 27 at 18:00 until the 28 at 18:00 UTC


271720Z 2718/2818 33007KT 4SM BR OVC014
FM271900 33007KT 3SM BR OVC004
FM280000 35003KT P6SM SCT004 BKN070
FM281300 35004KT P6SM BKN020



MET'MAP, your aeronautical weather chart ! - Copyright ORBIFLY December 2007 - Disclaimer

ORBIFLY MET'MAP TEAM :

Programming & Development : Alexandra Zaïnal
Concept & original design : Baudouin d'Aumeries
Assistance for programming : Marc-Olivier Méhu
Technical & hardware support : Manuel Goepfert

Contact : metmap@orbifly.com




SOURCES & CREDITS :

   NOAA       Earth
Advisory